Lambs Creek, Pennsylvania
Current Conditions -  °F | °C
As of 1:35 AM on Thursday 27 Nov 2014 (Local Time) from KN38 Reporting Station
Light Rain Light Rain  
Wind Chill: 19°   Ceiling: 1100
Heat Index: 27°   Visibility: 7mi
Dew Point: 25°   Wind: 7mph
Humidity: 93%   Direction: 10°N
Pressure: 29.93"   Gusts: NA
Location:  41.8345°N, 77.0538°W
Report Text: KN38 270635Z AUTO 01006KT 7SM -RA OVC011 M03/M04 A2993 RMK AO2
Loading
Personal Weather Stations






























Interactive Weather Map New forecast layout! Learn more

10-Day Weather Forecast

Advertisements
Track Severe Weather on mobile